Alliance, Nebraska
Current Conditions -  °F | °C
As of 4:53 AM on Thursday 23 Oct 2014 (Local Time) from KAIA Reporting Station
Clear Clear  
Wind Chill: 19°   Ceiling: Unl
Heat Index: 27°   Visibility: 10mi
Dew Point: 22°   Wind: 7mph
Humidity: 81%   Direction: 290°WNW
Pressure: 30.07"   Gusts: NA
Location:  42.1°N, 102.87°W
Report Text: KAIA 231053Z AUTO 29006KT 10SM CLR M03/M06 A3007 RMK AO2 SLP182 T10281056
Loading
Personal Weather Stations






























Interactive Weather Map
Tropical Storm Tracking
New forecast layout! Learn more

10-Day Weather Forecast

Advertisements
Track Severe Weather on mobile